Time;durP1;ratioP1;P1;durP2;ratioP2;P2;SDS_P1;SDS_P2;PMS_P1;PMS_P2;Temp;Humidity;BMP_temperature;BMP_pressure;BME280_temperature;BME280_humidity;BME280_pressure;Samples;Min_cycle;Max_cycle;Signal;HPM_P1;HPM_P2
2021/06/04 00:01:39;;;;;;;2.23;2.00;;;;;;;15.84;100.00;100930.88;4991359;28;20184;-71
2021/06/04 00:04:06;;;;;;;1.57;1.47;;;;;;;15.91;100.00;100920.09;4997364;28;20511;-72
2021/06/04 00:06:32;;;;;;;1.60;1.50;;;;;;;15.94;100.00;100920.25;4996171;28;20661;-71
2021/06/04 00:08:57;;;;;;;1.60;1.50;;;;;;;15.86;100.00;100925.84;4992706;28;20261;-71
2021/06/04 00:11:29;;;;;;;1.80;1.70;;;;;;;15.78;100.00;100927.53;4991626;28;20169;-71
2021/06/04 00:14:02;;;;;;;1.60;1.50;;;;;;;15.74;100.00;100932.88;4990975;28;20208;-71
2021/06/04 00:16:31;;;;;;;1.80;1.70;;;;;;;15.73;100.00;100917.47;4991039;28;20208;-71
2021/06/04 00:19:04;;;;;;;1.60;1.50;;;;;;;15.76;100.00;100916.00;4991241;28;20196;-72
2021/06/04 00:21:34;;;;;;;1.70;1.60;;;;;;;15.78;100.00;100919.25;4991191;28;20181;-71
2021/06/04 00:24:01;;;;;;;1.70;1.60;;;;;;;15.77;100.00;100920.41;4990977;28;20185;-71
2021/06/04 00:26:29;;;;;;;1.40;1.30;;;;;;;15.72;100.00;100912.31;4991016;28;20185;-71
2021/06/04 00:28:55;;;;;;;1.17;1.10;;;;;;;15.65;100.00;100923.88;4990696;28;20173;-71
2021/06/04 00:31:21;;;;;;;1.63;1.53;;;;;;;15.55;100.00;100923.41;4990055;28;20232;-71
2021/06/04 00:33:48;;;;;;;1.23;1.13;;;;;;;15.52;100.00;100919.38;4991076;28;20252;-71
2021/06/04 00:36:14;;;;;;;1.40;1.30;;;;;;;15.50;100.00;100918.91;4991004;28;20212;-71
2021/06/04 00:38:40;;;;;;;1.40;1.30;;;;;;;15.47;100.00;100925.88;4990800;28;20244;-72
2021/06/04 00:41:12;;;;;;;1.40;1.30;;;;;;;15.42;100.00;100915.06;4990784;28;20831;-71
2021/06/04 00:43:37;;;;;;;1.73;1.63;;;;;;;15.42;100.00;100917.81;4990811;28;20192;-71
2021/06/04 00:46:07;;;;;;;1.43;1.33;;;;;;;15.43;100.00;100913.09;4990890;28;20177;-71
2021/06/04 00:48:32;;;;;;;1.13;1.13;;;;;;;15.49;100.00;100911.78;4990942;28;20181;-72
2021/06/04 00:51:15;;;;;;;1.40;1.30;;;;;;;15.57;100.00;100926.63;4990970;28;20178;-71
2021/06/04 00:53:41;;;;;;;1.60;1.50;;;;;;;15.56;100.00;100919.50;4990801;28;20256;-71
2021/06/04 00:56:06;;;;;;;6.67;2.10;;;;;;;15.61;100.00;100919.34;4990581;28;20560;-71
2021/06/04 00:58:41;;;;;;;1.67;1.57;;;;;;;15.64;100.00;100926.97;4990642;28;20189;-71
2021/06/04 01:01:07;;;;;;;2.23;2.13;;;;;;;15.61;100.00;100917.38;4991509;28;20676;-72
2021/06/04 01:03:38;;;;;;;1.27;1.23;;;;;;;15.39;100.00;100904.72;4994295;28;20177;-72
2021/06/04 01:06:11;;;;;;;1.47;1.37;;;;;;;15.40;100.00;100905.50;4994227;28;20230;-72
2021/06/04 01:08:57;;;;;;;1.27;1.27;;;;;;;15.40;100.00;100903.56;4974724;28;20186;-72
2021/06/04 01:11:47;;;;;;;1.50;1.33;;;;;;;15.42;100.00;100903.22;4974624;28;20721;-71
2021/06/04 01:14:34;;;;;;;1.60;1.50;;;;;;;15.68;100.00;100900.34;4974453;28;20662;-72
2021/06/04 01:17:11;;;;;;;1.60;1.50;;;;;;;15.86;100.00;100901.84;4974546;28;20186;-72
2021/06/04 01:19:51;;;;;;;1.47;1.17;;;;;;;15.91;100.00;100895.31;4974248;28;20216;-72
2021/06/04 01:22:44;;;;;;;1.43;1.33;;;;;;;15.86;100.00;100888.06;4974496;28;20174;-71
2021/06/04 01:25:44;;;;;;;1.27;1.17;;;;;;;15.80;100.00;100892.16;4974400;28;20182;-71
2021/06/04 01:28:22;;;;;;;2.93;1.63;;;;;;;15.79;100.00;100898.81;4974614;28;20228;-72
2021/06/04 01:30:52;;;;;;;1.57;1.47;;;;;;;15.72;100.00;100891.06;4974600;28;20166;-71
2021/06/04 01:33:45;;;;;;;1.30;1.20;;;;;;;15.64;100.00;100888.41;4974242;28;20174;-72
2021/06/04 01:36:15;;;;;;;1.00;1.00;;;;;;;15.60;100.00;100898.44;4974149;28;20261;-72
2021/06/04 01:38:41;;;;;;;1.57;1.40;;;;;;;15.55;100.00;100888.41;4974057;28;20257;-72
2021/06/04 01:41:12;;;;;;;1.70;1.60;;;;;;;15.52;100.00;100882.78;4973982;28;20205;-71
2021/06/04 01:43:42;;;;;;;1.70;1.60;;;;;;;15.48;100.00;100886.19;4974254;28;20229;-72
2021/06/04 01:46:19;;;;;;;1.13;1.13;;;;;;;15.46;100.00;100893.16;4974042;28;20170;-71
2021/06/04 01:48:47;;;;;;;1.63;1.53;;;;;;;15.52;100.00;100889.09;4973984;28;20170;-71
2021/06/04 01:51:15;;;;;;;1.40;1.37;;;;;;;15.54;100.00;100897.00;4973942;28;20304;-72
2021/06/04 01:53:45;;;;;;;1.87;1.63;;;;;;;15.53;100.00;100900.91;4973823;28;20583;-72
2021/06/04 01:56:20;;;;;;;1.93;1.83;;;;;;;15.47;100.00;100892.00;4973669;28;20178;-72
2021/06/04 01:58:51;;;;;;;1.63;1.53;;;;;;;15.41;100.00;100905.19;4973624;28;20626;-72
2021/06/04 02:01:31;;;;;;;1.70;1.60;;;;;;;15.35;100.00;100897.44;4973977;28;20516;-71
2021/06/04 02:03:58;;;;;;;1.53;1.43;;;;;;;15.37;100.00;100890.47;4972623;28;20182;-71
2021/06/04 02:06:24;;;;;;;1.70;1.60;;;;;;;15.44;100.00;100896.25;4973504;28;20197;-71
2021/06/04 02:08:53;;;;;;;1.47;1.37;;;;;;;15.38;100.00;100897.59;4973306;28;20174;-72
2021/06/04 02:11:26;;;;;;;2.03;1.70;;;;;;;15.24;100.00;100894.25;4973503;28;20177;-72
2021/06/04 02:13:53;;;;;;;2.40;2.03;;;;;;;15.19;100.00;100897.22;4973273;28;20190;-71
2021/06/04 02:16:40;;;;;;;1.90;1.80;;;;;;;15.18;100.00;100898.31;4973334;28;20634;-71
2021/06/04 02:19:05;;;;;;;1.40;1.30;;;;;;;15.25;100.00;100901.38;4971820;28;20657;-71
2021/06/04 02:21:47;;;;;;;1.83;1.73;;;;;;;15.23;100.00;100895.41;4973396;28;20214;-71
2021/06/04 02:24:28;;;;;;;1.53;1.43;;;;;;;15.11;100.00;100892.53;4973304;28;20693;-71
2021/06/04 02:27:03;;;;;;;1.70;1.60;;;;;;;15.00;100.00;100900.34;4973185;28;20181;-71
2021/06/04 02:29:37;;;;;;;1.57;1.47;;;;;;;15.00;100.00;100900.34;4973080;28;20182;-72
2021/06/04 02:32:14;;;;;;;1.60;1.50;;;;;;;15.05;100.00;100902.13;4973253;28;20174;-71
2021/06/04 02:34:45;;;;;;;2.50;2.30;;;;;;;15.08;100.00;100901.47;4973265;28;20456;-72
2021/06/04 02:37:16;;;;;;;2.37;2.20;;;;;;;15.08;100.00;100898.72;4972893;28;20178;-71
2021/06/04 02:39:49;;;;;;;1.83;1.73;;;;;;;15.16;100.00;100898.66;4971630;28;20209;-72
2021/06/04 02:42:28;;;;;;;1.70;1.60;;;;;;;15.17;100.00;100903.03;4973124;28;20174;-71
2021/06/04 02:45:01;;;;;;;2.23;2.13;;;;;;;15.24;100.00;100894.25;4973017;28;20256;-72
2021/06/04 02:47:36;;;;;;;2.27;2.13;;;;;;;15.34;100.00;100901.34;4972921;28;20174;-72
2021/06/04 02:50:16;;;;;;;1.83;1.73;;;;;;;15.42;100.00;100897.72;4972730;28;20705;-72
2021/06/04 02:52:43;;;;;;;1.80;1.70;;;;;;;15.40;100.00;100900.81;4972831;28;20256;-71
2021/06/04 02:55:30;;;;;;;1.73;1.63;;;;;;;15.45;100.00;100897.84;4972711;28;20185;-72
2021/06/04 02:57:56;;;;;;;2.00;1.87;;;;;;;15.52;100.00;100902.84;4972311;28;20232;-71
2021/06/04 03:00:42;;;;;;;1.80;1.70;;;;;;;15.54;100.00;100902.53;4983330;28;20254;-72
2021/06/04 03:03:08;;;;;;;2.27;1.90;;;;;;;15.56;100.00;100891.97;4992382;28;20158;-72
2021/06/04 03:05:37;;;;;;;2.40;2.20;;;;;;;15.50;100.00;100894.13;4992080;28;20173;-72
2021/06/04 03:08:05;;;;;;;1.70;1.60;;;;;;;15.52;100.00;100900.09;4991537;28;20176;-71
2021/06/04 03:10:39;;;;;;;1.90;1.80;;;;;;;15.55;100.00;100890.34;4992110;28;20252;-71
2021/06/04 03:13:09;;;;;;;1.93;1.83;;;;;;;15.47;100.00;100900.28;4991723;28;20546;-71
2021/06/04 03:15:41;;;;;;;2.10;2.00;;;;;;;15.44;100.00;100904.50;4991697;28;20201;-71
2021/06/04 03:18:10;;;;;;;2.33;2.23;;;;;;;15.41;100.00;100899.66;4991742;28;20170;-72
2021/06/04 03:20:40;;;;;;;1.90;1.80;;;;;;;15.33;100.00;100900.50;4991642;28;20589;-71
2021/06/04 03:23:08;;;;;;;2.70;2.50;;;;;;;15.30;100.00;100906.69;4991778;28;20185;-72
2021/06/04 03:25:38;;;;;;;5.80;2.37;;;;;;;15.24;100.00;100902.53;4991118;28;20173;-72
2021/06/04 03:28:07;;;;;;;2.67;2.47;;;;;;;15.30;100.00;100903.94;4991589;28;20177;-72
2021/06/04 03:30:39;;;;;;;2.10;2.00;;;;;;;15.42;100.00;100906.78;4991617;28;20240;-72
2021/06/04 03:33:08;;;;;;;1.97;1.87;;;;;;;15.51;100.00;100901.25;4991452;28;20193;-72
2021/06/04 03:35:33;;;;;;;1.97;1.87;;;;;;;15.54;100.00;100903.31;4991441;28;20176;-72
2021/06/04 03:37:59;;;;;;;2.20;2.10;;;;;;;15.58;100.00;100904.25;4990229;28;20185;-72
2021/06/04 03:40:27;;;;;;;1.83;1.73;;;;;;;15.52;100.00;100907.56;4991529;28;20259;-72
2021/06/04 03:42:54;;;;;;;2.00;1.80;;;;;;;15.61;100.00;100914.63;4991578;28;20185;-72
2021/06/04 03:45:24;;;;;;;1.90;1.80;;;;;;;15.60;100.00;100912.22;4991350;28;20213;-72
2021/06/04 03:47:50;;;;;;;1.80;1.70;;;;;;;15.58;100.00;100918.03;4989891;28;20185;-72
2021/06/04 03:50:16;;;;;;;1.67;1.57;;;;;;;15.62;100.00;100913.53;4991299;28;20173;-72
2021/06/04 03:52:43;;;;;;;1.93;1.83;;;;;;;15.66;100.00;100908.16;4991498;28;20389;-71
2021/06/04 03:55:11;;;;;;;1.80;1.70;;;;;;;15.72;100.00;100910.34;4991143;28;20174;-71
2021/06/04 03:57:38;;;;;;;1.83;1.73;;;;;;;15.76;100.00;100907.72;4991005;28;20640;-72
2021/06/04 04:00:10;;;;;;;3.87;2.10;;;;;;;15.68;100.00;100919.63;4991020;28;20205;-72
2021/06/04 04:02:35;;;;;;;1.73;1.63;;;;;;;15.68;100.00;100928.69;4991225;28;20189;-72
2021/06/04 04:05:01;;;;;;;2.17;2.03;;;;;;;15.61;100.00;100916.59;4991289;28;20173;-72
2021/06/04 04:07:30;;;;;;;1.77;1.67;;;;;;;15.51;100.00;100919.72;4991441;28;20259;-72
2021/06/04 04:09:56;;;;;;;2.00;1.90;;;;;;;15.42;100.00;100920.56;4990972;28;20266;-71
2021/06/04 04:12:22;;;;;;;1.77;1.67;;;;;;;15.38;100.00;100922.38;4989850;28;20264;-72
2021/06/04 04:14:47;;;;;;;2.47;2.27;;;;;;;15.39;100.00;100921.22;4990945;28;20673;-72
2021/06/04 04:17:13;;;;;;;2.77;2.57;;;;;;;15.45;100.00;100913.56;4989720;28;20268;-71
2021/06/04 04:19:39;;;;;;;2.07;1.80;;;;;;;15.41;100.00;100921.69;4990834;28;20290;-72
2021/06/04 04:22:05;;;;;;;2.37;2.17;;;;;;;15.40;100.00;100919.28;4990934;28;20217;-72
2021/06/04 04:24:36;;;;;;;2.27;2.17;;;;;;;15.44;100.00;100921.03;4991055;28;20178;-72
2021/06/04 04:27:02;;;;;;;2.20;2.10;;;;;;;15.54;100.00;100921.78;4991126;28;20627;-72
2021/06/04 04:29:28;;;;;;;2.00;1.90;;;;;;;15.62;100.00;100929.22;4990757;28;20280;-72
2021/06/04 04:31:58;;;;;;;2.13;1.93;;;;;;;15.58;100.00;100926.28;4991065;28;20256;-72
2021/06/04 04:34:25;;;;;;;2.07;1.97;;;;;;;15.61;100.00;100927.59;4990914;28;20180;-71
2021/06/04 04:36:54;;;;;;;2.13;2.03;;;;;;;15.72;100.00;100928.84;4992591;28;20646;-72
2021/06/04 04:39:27;;;;;;;2.30;2.20;;;;;;;15.82;100.00;100927.66;4994769;28;20209;-72
2021/06/04 04:41:52;;;;;;;2.20;2.10;;;;;;;15.91;100.00;100926.44;4994784;28;20652;-72
2021/06/04 04:44:27;;;;;;;2.47;2.27;;;;;;;16.02;100.00;100929.59;4994717;28;20169;-72
2021/06/04 04:46:53;;;;;;;2.90;2.70;;;;;;;16.11;100.00;100929.53;4994529;28;20173;-72
2021/06/04 04:49:19;;;;;;;2.50;2.30;;;;;;;16.17;100.00;100937.25;4994641;28;20536;-72
2021/06/04 04:51:44;;;;;;;2.53;2.33;;;;;;;16.26;100.00;100932.47;4994331;28;20192;-72
2021/06/04 04:54:11;;;;;;;2.60;2.40;;;;;;;16.40;100.00;100929.44;4994228;28;20529;-72
2021/06/04 04:56:39;;;;;;;2.80;2.60;;;;;;;16.54;100.00;100926.41;4994328;28;20178;-71
2021/06/04 04:59:05;;;;;;;3.07;2.87;;;;;;;16.66;100.00;100932.75;4993120;28;20551;-72
2021/06/04 05:01:31;;;;;;;2.97;2.77;;;;;;;16.73;100.00;100925.91;4994585;28;20173;-72
2021/06/04 05:03:56;;;;;;;3.10;2.90;;;;;;;16.87;100.00;100924.44;4994194;28;20184;-72
2021/06/04 05:06:22;;;;;;;2.60;2.40;;;;;;;16.97;100.00;100925.16;4988043;28;20173;-72
2021/06/04 05:08:47;;;;;;;3.47;3.20;;;;;;;17.11;100.00;100928.41;4974333;28;20260;-72
2021/06/04 05:11:13;;;;;;;3.07;2.87;;;;;;;17.22;100.00;100924.84;4974616;28;20558;-72
2021/06/04 05:13:38;;;;;;;3.17;2.97;;;;;;;17.38;100.00;100916.69;4974287;28;20272;-72
2021/06/04 05:16:05;;;;;;;3.90;3.60;;;;;;;17.41;99.23;100920.69;4974426;28;20257;-72
2021/06/04 05:18:32;;;;;;;4.53;4.23;;;;;;;17.54;98.45;100923.13;4974307;28;20626;-72
2021/06/04 05:20:58;;;;;;;3.70;3.17;;;;;;;17.68;97.02;100931.06;4974402;28;20292;-72
2021/06/04 05:23:24;;;;;;;3.23;3.03;;;;;;;17.86;97.41;100914.22;4974330;28;20169;-72
2021/06/04 05:25:51;;;;;;;2.23;2.13;;;;;;;17.94;90.91;100916.03;4974201;28;20596;-72
2021/06/04 05:28:19;;;;;;;2.40;2.20;;;;;;;17.97;88.82;100915.34;4972808;28;20749;-72
2021/06/04 05:30:48;;;;;;;2.80;2.60;;;;;;;17.92;89.43;100905.31;4974211;28;20391;-72
2021/06/04 05:33:17;;;;;;;2.50;2.37;;;;;;;18.05;89.99;100920.72;4974065;28;20182;-72
2021/06/04 05:35:43;;;;;;;2.23;2.07;;;;;;;18.16;90.68;100914.72;4974113;28;20170;-72
2021/06/04 05:38:10;;;;;;;2.37;2.17;;;;;;;18.01;88.39;100914.28;4974100;28;20174;-72
2021/06/04 05:40:40;;;;;;;1.43;1.33;;;;;;;17.84;89.86;100920.91;4974047;28;20264;-71
2021/06/04 05:43:08;;;;;;;1.90;1.80;;;;;;;17.70;91.66;100925.19;4973979;28;20559;-71
2021/06/04 05:45:36;;;;;;;2.10;2.00;;;;;;;17.61;92.99;100924.47;4974029;28;20253;-71
2021/06/04 05:48:01;;;;;;;2.03;1.93;;;;;;;17.52;94.18;100930.13;4973703;28;20201;-71
2021/06/04 05:50:31;;;;;;;1.83;1.73;;;;;;;17.44;95.20;100920.81;4973959;28;20645;-71
2021/06/04 05:52:57;;;;;;;3.37;2.47;;;;;;;17.42;96.28;100922.31;4974148;28;20174;-71
2021/06/04 05:55:26;;;;;;;2.20;2.00;;;;;;;17.40;95.94;100925.41;4974067;28;20204;-73
2021/06/04 05:57:52;;;;;;;2.40;2.30;;;;;;;17.41;96.28;100927.03;4973585;28;20181;-73
2021/06/04 06:00:25;;;;;;;2.83;2.63;;;;;;;17.41;96.63;100926.22;4973804;28;20297;-73
2021/06/04 06:02:51;;;;;;;2.20;2.10;;;;;;;17.46;96.85;100931.50;4973651;28;20198;-73
2021/06/04 06:05:17;;;;;;;3.27;2.97;;;;;;;17.50;96.90;100926.88;4973403;28;20337;-73
2021/06/04 06:07:42;;;;;;;2.63;2.43;;;;;;;17.44;97.36;100939.34;4973980;28;20712;-72
2021/06/04 06:10:09;;;;;;;2.40;2.30;;;;;;;17.41;97.92;100943.59;4979528;28;20188;-73
2021/06/04 06:12:34;;;;;;;2.60;2.40;;;;;;;17.45;99.48;100950.03;4979306;28;20188;-74
2021/06/04 06:15:01;;;;;;;4.13;3.83;;;;;;;17.44;99.80;100948.44;4974153;28;20182;-72
2021/06/04 06:17:26;;;;;;;4.23;3.93;;;;;;;17.48;99.42;100943.81;4973973;28;20200;-72
2021/06/04 06:19:52;;;;;;;5.67;4.17;;;;;;;17.50;99.25;100947.06;4973488;28;20729;-73
2021/06/04 06:22:17;;;;;;;3.90;3.67;;;;;;;17.53;99.12;100945.56;4973507;28;20193;-73
2021/06/04 06:24:42;;;;;;;4.87;4.47;;;;;;;17.58;99.05;100947.28;4973551;28;20538;-73
2021/06/04 06:27:08;;;;;;;3.80;3.50;;;;;;;17.67;98.50;100945.22;4973358;28;20189;-73
2021/06/04 06:29:36;;;;;;;3.87;3.57;;;;;;;17.73;96.88;100949.38;4973105;28;20178;-73
2021/06/04 06:32:04;;;;;;;3.43;3.23;;;;;;;17.77;95.34;100950.28;4973125;28;20182;-73
2021/06/04 06:34:29;;;;;;;2.80;2.60;;;;;;;17.83;93.51;100949.72;4973108;28;20178;-73
2021/06/04 06:36:55;;;;;;;2.23;2.10;;;;;;;17.89;92.19;100955.00;4971827;28;20185;-72
2021/06/04 06:39:25;;;;;;;3.13;2.93;;;;;;;17.93;90.70;100958.66;4972978;28;20252;-72
2021/06/04 06:41:51;;;;;;;2.43;2.23;;;;;;;18.00;89.17;100964.41;4973014;28;20174;-73
2021/06/04 06:44:18;;;;;;;2.63;2.53;;;;;;;18.06;87.86;100963.81;4973139;28;20174;-73
2021/06/04 06:46:44;;;;;;;2.50;2.30;;;;;;;18.13;86.47;100966.81;4973015;28;20186;-73
2021/06/04 06:49:10;;;;;;;2.83;2.73;;;;;;;18.29;88.32;100961.34;4972756;28;20186;-73
2021/06/04 06:51:37;;;;;;;2.80;2.50;;;;;;;18.38;86.43;100970.31;4973122;28;20236;-73
2021/06/04 06:54:06;;;;;;;2.27;2.13;;;;;;;18.51;87.84;100962.75;4972801;28;20182;-73
2021/06/04 06:56:32;;;;;;;3.30;3.10;;;;;;;18.60;87.08;100971.72;4972789;28;20261;-73
2021/06/04 06:58:58;;;;;;;2.93;2.73;;;;;;;18.75;88.43;100972.94;4972201;28;20766;-73
2021/06/04 07:01:24;;;;;;;3.27;3.07;;;;;;;18.83;87.83;100962.88;4972543;28;20220;-73
2021/06/04 07:03:49;;;;;;;2.73;2.53;;;;;;;18.94;88.28;100967.53;4973032;28;20177;-73
2021/06/04 07:06:23;;;;;;;3.57;3.33;;;;;;;19.02;88.75;100963.00;4972476;28;20178;-73
2021/06/04 07:08:49;;;;;;;3.07;2.87;;;;;;;19.04;87.40;100974.50;4970899;28;20630;-73
2021/06/04 07:11:16;;;;;;;2.70;2.50;;;;;;;19.03;87.37;100967.38;4972770;28;20185;-73
2021/06/04 07:13:42;;;;;;;2.90;2.70;;;;;;;19.13;88.24;100966.03;4991711;28;20596;-73
2021/06/04 07:16:10;;;;;;;2.90;2.70;;;;;;;19.24;89.21;100967.09;4991913;28;20208;-73
2021/06/04 07:18:37;;;;;;;2.80;2.60;;;;;;;19.39;87.58;100966.31;4991570;28;20188;-73
2021/06/04 07:21:03;;;;;;;2.93;2.73;;;;;;;19.52;87.07;100970.59;4991656;28;20244;-75
2021/06/04 07:23:30;;;;;;;3.90;3.60;;;;;;;19.60;85.83;100979.91;4991765;28;20173;-75
2021/06/04 07:25:56;;;;;;;2.23;2.03;;;;;;;19.61;86.79;100979.56;4991717;28;20208;-81
2021/06/04 07:28:27;;;;;;;2.90;2.67;;;;;;;19.54;86.41;100975.78;4991504;28;20676;-72
2021/06/04 07:30:54;;;;;;;2.93;2.73;;;;;;;19.55;86.79;100983.78;4991460;28;20180;-73
2021/06/04 07:33:21;;;;;;;3.63;3.27;;;;;;;19.56;87.35;100985.38;4991539;28;20324;-73
2021/06/04 07:35:49;;;;;;;4.07;3.80;;;;;;;19.58;88.64;100988.59;4991574;28;20217;-72
2021/06/04 07:38:14;;;;;;;3.10;2.93;;;;;;;19.59;88.30;100984.66;4991444;28;20676;-72
2021/06/04 07:40:40;;;;;;;3.93;3.63;;;;;;;19.60;88.89;100986.25;4991475;28;20211;-71
2021/06/04 07:43:10;;;;;;;3.50;3.30;;;;;;;19.75;88.83;100984.63;4991512;28;20185;-71
2021/06/04 07:45:38;;;;;;;3.63;3.40;;;;;;;19.80;89.47;100989.09;4991290;28;20174;-70
2021/06/04 07:48:04;;;;;;;4.30;3.97;;;;;;;19.88;88.62;100982.56;4989944;28;20625;-71
2021/06/04 07:50:29;;;;;;;3.30;3.10;;;;;;;20.03;89.45;100986.47;4991327;28;20211;-72
2021/06/04 07:52:55;;;;;;;4.00;3.80;;;;;;;20.15;87.13;100989.91;4991423;28;20200;-71
2021/06/04 07:55:21;;;;;;;3.63;3.43;;;;;;;20.29;85.63;100989.41;4991251;28;20174;-72
2021/06/04 07:57:46;;;;;;;4.00;3.70;;;;;;;20.37;85.35;100990.38;4991484;28;20260;-71
2021/06/04 08:00:21;;;;;;;3.47;3.27;;;;;;;20.39;84.28;100982.47;4990871;28;20197;-72
2021/06/04 08:02:46;;;;;;;4.97;3.63;;;;;;;20.48;85.36;100988.66;4991227;28;20168;-72
2021/06/04 08:05:13;;;;;;;3.03;2.83;;;;;;;20.52;85.10;100986.75;4990958;28;20227;-72
2021/06/04 08:07:39;;;;;;;2.77;2.57;;;;;;;20.53;84.57;100987.53;4990991;28;20260;-72
2021/06/04 08:10:06;;;;;;;3.37;3.17;;;;;;;20.64;84.17;100983.81;4991436;28;20256;-72
2021/06/04 08:12:32;;;;;;;3.47;3.27;;;;;;;20.75;84.34;100984.84;4994880;28;20557;-72
2021/06/04 08:15:19;;;;;;;3.60;3.33;;;;;;;20.88;84.95;100987.47;4994853;28;20165;-72
2021/06/04 08:17:45;;;;;;;3.37;3.17;;;;;;;20.98;83.66;100978.53;4994740;28;20524;-71
2021/06/04 08:20:13;;;;;;;3.57;3.37;;;;;;;21.01;84.38;100978.59;4994786;28;20292;-72
2021/06/04 08:22:42;;;;;;;3.67;3.40;;;;;;;21.12;84.44;100980.72;4994606;28;20185;-72
2021/06/04 08:25:10;;;;;;;3.37;3.10;;;;;;;21.29;84.69;100985.84;4994597;28;20627;-72
2021/06/04 08:27:35;;;;;;;3.83;3.63;;;;;;;21.34;82.91;100989.13;4994921;28;20169;-75
2021/06/04 08:30:00;;;;;;;3.43;3.23;;;;;;;21.46;82.78;100977.00;4994696;28;20177;-76
2021/06/04 08:32:26;;;;;;;3.10;2.90;;;;;;;21.62;82.75;100977.66;4994686;28;20637;-74
2021/06/04 08:34:51;;;;;;;3.87;3.60;;;;;;;21.65;81.35;100976.09;4994713;28;20177;-75
2021/06/04 08:37:16;;;;;;;3.47;3.17;;;;;;;21.64;78.80;100971.72;4994996;28;20586;-75
2021/06/04 08:39:43;;;;;;;2.67;2.47;;;;;;;21.71;81.16;100968.25;4994633;28;20594;-75
2021/06/04 08:42:20;;;;;;;3.33;3.13;;;;;;;21.71;80.90;100965.47;4994475;28;20184;-75
2021/06/04 08:45:04;;;;;;;4.30;4.00;;;;;;;21.75;80.76;100964.34;4994437;28;20199;-75
2021/06/04 08:47:34;;;;;;;3.40;3.20;;;;;;;21.87;79.88;100968.91;4994440;28;20717;-75
2021/06/04 08:50:28;;;;;;;3.80;3.53;;;;;;;21.96;79.77;100970.22;4994606;28;20638;-75
2021/06/04 08:53:01;;;;;;;3.20;3.00;;;;;;;22.12;77.36;100967.28;4994313;28;20197;-75
2021/06/04 08:55:29;;;;;;;3.40;3.13;;;;;;;22.19;78.07;100969.38;4993281;28;20240;-75
2021/06/04 08:58:20;;;;;;;2.90;2.70;;;;;;;22.22;72.53;100974.19;4989910;28;20181;-75
2021/06/04 09:00:54;;;;;;;3.33;3.13;;;;;;;22.31;73.64;100968.34;4974484;28;20815;-72
2021/06/04 09:03:25;;;;;;;2.33;2.17;;;;;;;22.35;73.54;100969.97;4994214;28;20177;-71
2021/06/04 09:05:59;;;;;;;2.60;2.50;;;;;;;22.37;73.07;100967.63;4994349;28;20181;-74
2021/06/04 09:08:31;;;;;;;2.10;2.00;;;;;;;22.40;72.84;100966.03;4991783;28;20183;-74
2021/06/04 09:11:11;;;;;;;2.40;2.30;;;;;;;22.42;71.85;100972.88;4993823;28;20184;-73
2021/06/04 09:13:38;;;;;;;2.63;2.43;;;;;;;22.53;73.36;100976.56;4991779;28;20185;-74
2021/06/04 09:16:12;;;;;;;2.50;2.37;;;;;;;22.64;70.52;100975.91;4992738;28;20222;-74
2021/06/04 09:18:49;;;;;;;3.00;2.80;;;;;;;22.75;71.12;100974.03;4993832;28;20261;-75
2021/06/04 09:21:21;;;;;;;2.40;2.30;;;;;;;22.81;68.92;100970.50;4993853;28;20208;-74
2021/06/04 09:23:47;;;;;;;2.17;2.07;;;;;;;22.85;67.51;100970.56;4993444;28;20540;-74
2021/06/04 09:26:16;;;;;;;2.23;2.13;;;;;;;22.97;69.64;100963.94;4993954;28;20176;-74
2021/06/04 09:28:47;;;;;;;2.43;2.33;;;;;;;23.01;69.59;100968.38;4993678;28;20535;-74
2021/06/04 09:31:25;;;;;;;2.90;2.70;;;;;;;22.79;68.76;100974.88;4993782;28;20655;-74
2021/06/04 09:33:57;;;;;;;2.10;2.00;;;;;;;22.97;66.30;100978.66;4992645;28;20183;-74
2021/06/04 09:36:45;;;;;;;2.10;2.00;;;;;;;23.03;65.78;100976.34;4992757;28;20275;-73
2021/06/04 09:39:22;;;;;;;2.40;2.30;;;;;;;23.23;66.14;100974.13;4992895;28;20574;-73
2021/06/04 09:41:47;;;;;;;2.33;2.23;;;;;;;23.25;65.33;100974.56;4985729;28;20268;-72
2021/06/04 09:44:21;;;;;;;2.23;2.13;;;;;;;23.35;64.30;100974.66;4993548;28;20276;-73
2021/06/04 09:47:02;;;;;;;2.07;1.97;;;;;;;23.23;62.46;100966.56;4993366;28;20176;-73
2021/06/04 09:49:33;;;;;;;2.40;2.20;;;;;;;23.33;65.37;100967.88;4993473;28;20180;-73
2021/06/04 09:52:26;;;;;;;2.20;2.10;;;;;;;23.47;64.42;100967.97;4993481;28;20181;-75
2021/06/04 09:55:09;;;;;;;2.03;1.93;;;;;;;23.68;63.61;100970.16;4993353;28;20707;-74
2021/06/04 09:57:35;;;;;;;4.00;2.70;;;;;;;23.87;62.59;100966.28;4993274;28;20530;-74
2021/06/04 10:00:24;;;;;;;2.20;2.07;;;;;;;23.96;62.31;100966.75;4993123;28;20204;-74
2021/06/04 10:02:49;;;;;;;2.27;2.17;;;;;;;24.07;61.83;100966.81;4993562;28;20173;-74
2021/06/04 10:05:33;;;;;;;2.80;2.60;;;;;;;24.03;62.76;100967.59;4993146;28;20181;-74
2021/06/04 10:07:59;;;;;;;2.67;2.47;;;;;;;24.14;61.17;100967.63;4991523;28;20546;-76
2021/06/04 10:10:28;;;;;;;2.27;2.07;;;;;;;24.22;59.64;100963.69;4991932;28;20181;-74
2021/06/04 10:12:59;;;;;;;5.43;2.57;;;;;;;24.39;58.10;100964.19;4993266;28;20224;-75
2021/06/04 10:15:51;;;;;;;3.53;2.60;;;;;;;24.67;60.81;100960.69;4993002;28;20248;-74
2021/06/04 10:18:38;;;;;;;2.10;2.00;;;;;;;24.82;58.11;100951.94;4992910;28;20169;-74
2021/06/04 10:21:31;;;;;;;2.17;2.07;;;;;;;24.82;55.39;100957.53;4992853;28;20212;-74
2021/06/04 10:24:01;;;;;;;2.20;2.10;;;;;;;24.58;56.27;100958.28;4992978;28;20240;-71
2021/06/04 10:26:34;;;;;;;1.97;1.87;;;;;;;24.48;55.73;100956.25;4992701;28;20668;-72
2021/06/04 10:29:08;;;;;;;1.93;1.83;;;;;;;24.75;60.45;100960.34;4992369;28;20244;-72
2021/06/04 10:31:54;;;;;;;1.37;1.27;;;;;;;24.88;57.09;100963.53;4992683;28;20180;-72
2021/06/04 10:34:47;;;;;;;1.70;1.60;;;;;;;24.78;57.81;100959.53;4992549;28;20182;-73
2021/06/04 10:37:38;;;;;;;1.90;1.80;;;;;;;24.73;59.49;100959.91;4992430;28;20451;-72
2021/06/04 10:40:09;;;;;;;1.97;1.87;;;;;;;24.85;60.39;100967.13;4992282;28;20288;-71
2021/06/04 10:43:05;;;;;;;2.47;2.27;;;;;;;25.05;57.19;100964.81;4992451;28;20180;-71
2021/06/04 10:45:39;;;;;;;2.30;2.10;;;;;;;25.23;55.72;100976.81;4992164;28;20162;-71
2021/06/04 10:48:41;;;;;;;2.47;2.27;;;;;;;25.15;55.98;100969.59;4992156;28;20179;-71
2021/06/04 10:51:33;;;;;;;2.83;2.63;;;;;;;24.99;57.46;100960.75;4992024;28;20219;-71
2021/06/04 10:54:13;;;;;;;2.30;2.20;;;;;;;25.25;58.93;100962.44;4992128;28;20174;-71
2021/06/04 10:56:43;;;;;;;2.20;2.10;;;;;;;25.63;57.95;100964.41;4992261;28;20185;-72
2021/06/04 10:59:33;;;;;;;2.30;2.20;;;;;;;25.57;55.03;100966.00;4991854;28;20260;-72
2021/06/04 11:02:13;;;;;;;2.17;2.07;;;;;;;25.35;54.70;100956.84;4992580;28;20185;-73
2021/06/04 11:05:12;;;;;;;2.00;1.90;;;;;;;25.45;54.47;100956.00;4992155;28;20189;-72
2021/06/04 11:07:49;;;;;;;2.40;2.20;;;;;;;25.71;51.70;100954.03;4991974;28;20181;-72
2021/06/04 11:10:24;;;;;;;3.30;3.10;;;;;;;25.43;53.25;100952.81;4992111;28;20173;-72
2021/06/04 11:13:04;;;;;;;2.37;2.17;;;;;;;25.61;54.84;100952.03;4989403;28;20640;-75
2021/06/04 11:15:41;;;;;;;2.30;2.20;;;;;;;25.47;55.01;100950.84;4972422;28;20736;-72
2021/06/04 11:18:42;;;;;;;2.10;2.00;;;;;;;25.37;56.20;100943.25;4972322;28;20262;-72
2021/06/04 11:21:34;;;;;;;2.67;2.47;;;;;;;25.32;56.85;100940.84;4972423;28;20201;-72
2021/06/04 11:24:34;;;;;;;2.63;2.43;;;;;;;25.45;54.57;100944.03;4972343;28;20265;-72
2021/06/04 11:26:59;;;;;;;2.50;2.30;;;;;;;25.18;56.13;100936.06;4972278;28;20265;-72
2021/06/04 11:29:36;;;;;;;2.30;2.20;;;;;;;25.31;57.40;100935.63;4972149;28;20178;-72
2021/06/04 11:32:19;;;;;;;2.80;2.60;;;;;;;24.99;56.86;100932.81;4972266;28;20170;-72
2021/06/04 11:35:03;;;;;;;2.97;2.77;;;;;;;25.06;58.14;100935.66;4972448;28;20177;-72
2021/06/04 11:37:56;;;;;;;2.50;2.40;;;;;;;24.95;58.95;100938.41;4972072;28;20158;-72
2021/06/04 11:40:31;;;;;;;2.70;2.50;;;;;;;25.01;60.18;100933.22;4971973;28;20209;-72
2021/06/04 11:43:06;;;;;;;2.70;2.50;;;;;;;25.10;60.81;100937.25;4988284;28;20540;-72